createdAt,value
2023-02-26T00:00:28.473Z,98484.73
2023-02-26T00:01:32.916Z,98497.00
2023-02-26T00:02:36.748Z,98493.39
2023-02-26T00:03:42.233Z,98494.80
2023-02-26T00:04:44.887Z,98494.42
2023-02-26T00:05:51.102Z,98492.94
2023-02-26T00:06:58.578Z,98495.27
2023-02-26T00:08:00.836Z,98502.30
2023-02-26T00:09:05.269Z,98501.17
2023-02-26T00:10:12.204Z,98510.81
2023-02-26T00:11:16.165Z,98511.09
2023-02-26T00:12:21.142Z,98510.01
2023-02-26T00:13:25.186Z,98516.63
2023-02-26T00:14:30.936Z,98525.83
2023-02-26T00:15:33.826Z,98534.55
2023-02-26T00:16:39.532Z,98525.55
2023-02-26T00:17:44.915Z,98517.19
2023-02-26T00:18:47.794Z,98515.81
2023-02-26T00:19:51.498Z,98515.53
2023-02-26T00:20:54.908Z,98517.13
2023-02-26T00:21:58.619Z,98512.22
2023-02-26T00:23:02.130Z,98520.46
2023-02-26T00:24:07.413Z,98519.11
2023-02-26T00:25:11.091Z,98515.41
2023-02-26T00:26:15.352Z,98528.05
2023-02-26T00:27:20.010Z,98521.55
2023-02-26T00:28:24.817Z,98527.83
2023-02-26T00:29:29.738Z,98523.64
2023-02-26T00:30:35.339Z,98519.11
2023-02-26T00:31:40.188Z,98522.70
2023-02-26T00:32:45.432Z,98521.68
2023-02-26T00:33:48.765Z,98533.48
2023-02-26T00:34:51.955Z,98536.48
2023-02-26T00:35:57.347Z,98539.94
2023-02-26T00:37:18.829Z,98532.92
2023-02-26T00:38:23.019Z,98530.67
2023-02-26T00:39:35.020Z,98542.84
2023-02-26T00:40:44.021Z,98547.06
2023-02-26T00:41:47.564Z,98539.94
2023-02-26T00:42:50.240Z,98535.95
2023-02-26T00:43:53.627Z,98540.53
2023-02-26T00:44:57.339Z,98534.27
2023-02-26T00:46:04.767Z,98536.57
2023-02-26T00:47:13.519Z,98526.39
2023-02-26T00:48:19.040Z,98528.57
2023-02-26T00:49:37.485Z,98526.55
2023-02-26T00:50:44.747Z,98538.63
2023-02-26T00:51:52.758Z,98545.90
2023-02-26T00:53:00.115Z,98552.77
2023-02-26T00:54:22.001Z,98558.58
2023-02-26T00:55:29.385Z,98553.05
2023-02-26T00:56:33.283Z,98561.48
2023-02-26T00:57:36.804Z,98546.45
2023-02-26T00:58:40.200Z,98554.85
2023-02-26T00:59:44.963Z,98556.91
2023-02-26T01:00:48.568Z,98560.89
2023-02-26T01:01:51.713Z,98562.75
2023-02-26T01:02:56.088Z,98568.13
2023-02-26T01:04:02.424Z,98569.91
2023-02-26T01:05:07.088Z,98559.64
2023-02-26T01:06:12.685Z,98569.30
2023-02-26T01:07:19.252Z,98573.02
2023-02-26T01:08:25.000Z,98588.05
2023-02-26T01:09:31.228Z,98595.77
2023-02-26T01:10:35.663Z,98601.64
2023-02-26T01:11:40.848Z,98598.69
2023-02-26T01:12:44.474Z,98600.19
2023-02-26T01:13:49.311Z,98610.27
2023-02-26T01:14:54.631Z,98615.13
2023-02-26T01:15:59.885Z,98611.52
2023-02-26T01:17:28.974Z,98620.19
2023-02-26T01:18:35.564Z,98606.96
2023-02-26T01:19:47.166Z,98610.59
2023-02-26T01:20:52.443Z,98618.75
2023-02-26T01:21:58.245Z,98618.23
2023-02-26T01:23:03.526Z,98620.95
2023-02-26T01:24:07.953Z,98621.86
2023-02-26T01:25:16.265Z,98615.98
2023-02-26T01:26:22.497Z,98613.69
2023-02-26T01:27:25.804Z,98619.83
2023-02-26T01:28:29.720Z,98622.83
2023-02-26T01:29:32.756Z,98616.74
2023-02-26T01:30:37.041Z,98619.17
2023-02-26T01:31:46.028Z,98614.96
2023-02-26T01:32:51.407Z,98620.20
2023-02-26T01:33:56.020Z,98612.44
2023-02-26T01:35:04.850Z,98623.48
2023-02-26T01:36:09.708Z,98619.45
2023-02-26T01:37:15.307Z,98629.77
2023-02-26T01:38:21.320Z,98636.89
2023-02-26T01:39:45.086Z,98640.36
2023-02-26T01:40:51.126Z,98639.92
2023-02-26T01:42:01.612Z,98652.38
2023-02-26T01:43:08.347Z,98638.14
2023-02-26T01:44:17.388Z,98640.95
2023-02-26T01:45:26.454Z,98639.48
2023-02-26T01:46:47.398Z,98660.28
2023-02-26T01:47:52.867Z,98660.11
2023-02-26T01:48:57.716Z,98673.31
2023-02-26T01:50:09.275Z,98669.54
2023-02-26T01:51:13.515Z,98666.73
2023-02-26T01:52:34.244Z,98667.03
2023-02-26T01:53:37.469Z,98669.92
2023-02-26T01:54:40.123Z,98658.59
2023-02-26T01:55:45.290Z,98667.88
2023-02-26T01:56:51.407Z,98662.25
2023-02-26T01:57:58.073Z,98670.38
2023-02-26T01:59:03.420Z,98671.04
2023-02-26T02:00:08.094Z,98672.82
2023-02-26T02:01:13.474Z,98667.21
2023-02-26T02:02:20.248Z,98662.22
2023-02-26T02:03:25.489Z,98670.40
2023-02-26T02:04:29.784Z,98677.52
2023-02-26T02:05:38.770Z,98691.75
2023-02-26T02:06:42.588Z,98691.27
2023-02-26T02:07:47.877Z,98697.09
2023-02-26T02:08:52.210Z,98691.75
2023-02-26T02:09:56.675Z,98711.05
2023-02-26T02:11:00.153Z,98705.98
2023-02-26T02:12:11.578Z,98710.38
2023-02-26T02:13:26.804Z,98710.20
2023-02-26T02:14:42.532Z,98710.69
2023-02-26T02:15:49.281Z,98714.69
2023-02-26T02:16:54.239Z,98717.14
2023-02-26T02:18:03.167Z,98721.17
2023-02-26T02:19:25.701Z,98718.55
2023-02-26T02:20:46.529Z,98719.19
2023-02-26T02:22:09.805Z,98724.91
2023-02-26T02:24:43.139Z,98714.59
2023-02-26T02:25:58.546Z,98715.26
2023-02-26T02:27:14.892Z,98709.53
2023-02-26T02:28:30.169Z,98715.63
2023-02-26T02:29:36.528Z,98718.06
2023-02-26T02:31:01.908Z,98726.12
2023-02-26T02:32:09.949Z,98724.52
2023-02-26T02:33:16.585Z,98726.60
2023-02-26T02:34:24.677Z,98732.60
2023-02-26T02:35:41.682Z,98738.88
2023-02-26T02:36:49.436Z,98732.30
2023-02-26T02:38:11.437Z,98733.45
2023-02-26T02:39:16.974Z,98736.34
2023-02-26T02:40:22.832Z,98734.83
2023-02-26T02:41:29.264Z,98740.34
2023-02-26T02:42:34.542Z,98745.97
2023-02-26T02:43:39.821Z,98748.41
2023-02-26T02:44:44.061Z,98750.56
2023-02-26T02:45:49.224Z,98747.49
2023-02-26T02:46:58.447Z,98753.18
2023-02-26T02:48:18.759Z,98748.52
2023-02-26T02:49:28.435Z,98753.27
2023-02-26T02:50:32.607Z,98746.34
2023-02-26T02:51:45.552Z,98754.52
2023-02-26T02:52:53.338Z,98759.67
2023-02-26T02:54:01.281Z,98766.78
2023-02-26T02:55:07.724Z,98760.30
2023-02-26T02:56:16.130Z,98767.24
2023-02-26T02:57:22.877Z,98769.23
2023-02-26T02:58:29.453Z,98763.78
2023-02-26T02:59:39.508Z,98766.22
2023-02-26T03:00:45.346Z,98755.91
2023-02-26T03:01:53.312Z,98759.20
2023-02-26T03:03:03.693Z,98759.11
2023-02-26T03:04:13.512Z,98767.80
2023-02-26T03:05:17.715Z,98761.36
2023-02-26T03:06:20.578Z,98767.06
2023-02-26T03:07:26.181Z,98765.28
2023-02-26T03:08:31.271Z,98762.58
2023-02-26T03:09:34.957Z,98764.35
2023-02-26T03:10:40.141Z,98767.16
2023-02-26T03:11:45.222Z,98774.83
2023-02-26T03:12:51.282Z,98774.56
2023-02-26T03:13:55.659Z,98779.91
2023-02-26T03:15:01.889Z,98781.78
2023-02-26T03:16:19.524Z,98782.22
2023-02-26T03:17:28.764Z,98781.51
2023-02-26T03:18:40.074Z,98782.89
2023-02-26T03:20:02.706Z,98785.98
2023-02-26T03:21:19.047Z,98786.85
2023-02-26T03:22:27.681Z,98795.75
2023-02-26T03:23:44.056Z,98796.32
2023-02-26T03:24:50.882Z,98794.72
2023-02-26T03:26:01.172Z,98792.18
2023-02-26T03:27:07.293Z,98799.95
2023-02-26T03:28:14.652Z,98806.85
2023-02-26T03:29:23.183Z,98802.55
2023-02-26T03:30:40.121Z,98811.02
2023-02-26T03:31:57.326Z,98815.20
2023-02-26T03:33:17.360Z,98811.64
2023-02-26T03:34:23.995Z,98814.39
2023-02-26T03:35:35.437Z,98809.70
2023-02-26T03:36:40.737Z,98815.70
2023-02-26T03:37:50.280Z,98816.62
2023-02-26T03:38:55.369Z,98818.12
2023-02-26T03:40:01.775Z,98826.61
2023-02-26T03:41:07.491Z,98823.60
2023-02-26T03:42:18.194Z,98828.03
2023-02-26T03:43:31.797Z,98827.28
2023-02-26T03:44:40.140Z,98834.59
2023-02-26T03:45:48.455Z,98837.80
2023-02-26T03:46:53.948Z,98834.47
2023-02-26T03:47:59.546Z,98830.16
2023-02-26T03:49:06.205Z,98827.83
2023-02-26T03:50:12.805Z,98829.90
2023-02-26T03:51:25.854Z,98831.20
2023-02-26T03:52:41.794Z,98831.59
2023-02-26T03:54:08.865Z,98834.03
2023-02-26T03:55:15.342Z,98822.38
2023-02-26T03:56:37.279Z,98824.03
2023-02-26T03:57:46.039Z,98824.24
2023-02-26T03:58:56.318Z,98819.34
2023-02-26T04:00:18.187Z,98826.40
2023-02-26T04:01:22.734Z,98829.23
2023-02-26T04:02:29.092Z,98828.03
2023-02-26T04:03:36.134Z,98826.17
2023-02-26T04:04:41.957Z,98832.11
2023-02-26T04:05:46.689Z,98821.83
2023-02-26T04:06:53.971Z,98834.34
2023-02-26T04:07:57.996Z,98831.18
2023-02-26T04:09:00.952Z,98835.48
2023-02-26T04:10:05.504Z,98838.61
2023-02-26T04:11:12.091Z,98840.56
2023-02-26T04:12:14.817Z,98840.13
2023-02-26T04:13:21.029Z,98841.91
2023-02-26T04:14:27.888Z,98844.29
2023-02-26T04:15:32.635Z,98849.62
2023-02-26T04:16:38.984Z,98853.59
2023-02-26T04:17:42.266Z,98857.73
2023-02-26T04:18:45.803Z,98858.66
2023-02-26T04:19:50.549Z,98866.27
2023-02-26T04:20:54.977Z,98862.47
2023-02-26T04:21:57.538Z,98870.84
2023-02-26T04:23:01.456Z,98877.58
2023-02-26T04:24:05.300Z,98877.40
2023-02-26T04:25:08.799Z,98874.48
2023-02-26T04:26:15.244Z,98882.30
2023-02-26T04:27:18.743Z,98885.86
2023-02-26T04:28:22.531Z,98887.38
2023-02-26T04:29:26.385Z,98896.42
2023-02-26T04:30:31.329Z,98897.52
2023-02-26T04:31:35.485Z,98892.45
2023-02-26T04:32:39.931Z,98894.91
2023-02-26T04:33:43.644Z,98894.98
2023-02-26T04:34:47.388Z,98891.13
2023-02-26T04:35:52.940Z,98897.89
2023-02-26T04:36:56.634Z,98889.66
2023-02-26T04:38:00.070Z,98894.48
2023-02-26T04:39:05.527Z,98904.46
2023-02-26T04:40:10.075Z,98900.91
2023-02-26T04:41:13.809Z,98907.73
2023-02-26T04:42:19.912Z,98912.43
2023-02-26T04:43:25.421Z,98916.27
2023-02-26T04:44:34.658Z,98922.87
2023-02-26T04:45:37.196Z,98920.84
2023-02-26T04:46:44.052Z,98922.95
2023-02-26T04:47:48.944Z,98926.03
2023-02-26T04:48:52.839Z,98929.97
2023-02-26T04:49:56.437Z,98931.41
2023-02-26T04:51:00.069Z,98927.47
2023-02-26T04:52:03.813Z,98932.45
2023-02-26T04:53:07.175Z,98932.05
2023-02-26T04:54:10.667Z,98930.84
2023-02-26T04:55:13.588Z,98941.08
2023-02-26T04:56:16.966Z,98937.30
2023-02-26T04:57:24.238Z,98944.80
2023-02-26T04:58:28.249Z,98950.23
2023-02-26T04:59:33.727Z,98956.66
2023-02-26T05:00:36.427Z,98948.34
2023-02-26T05:01:40.033Z,98959.60
2023-02-26T05:02:45.449Z,98954.03
2023-02-26T05:03:50.641Z,98953.59
2023-02-26T05:04:57.925Z,98959.80
2023-02-26T05:06:02.497Z,98960.95
2023-02-26T05:07:09.136Z,98956.05
2023-02-26T05:08:12.648Z,98955.20
2023-02-26T05:09:15.968Z,98957.24
2023-02-26T05:10:21.113Z,98948.16
2023-02-26T05:11:24.503Z,98957.13
2023-02-26T05:12:27.395Z,98957.80
2023-02-26T05:13:31.002Z,98957.72
2023-02-26T05:14:34.507Z,98964.33
2023-02-26T05:15:37.692Z,98971.52
2023-02-26T05:16:40.473Z,98972.78
2023-02-26T05:17:44.392Z,98970.83
2023-02-26T05:18:49.157Z,98972.28
2023-02-26T05:19:54.021Z,98964.24
2023-02-26T05:20:57.615Z,98978.87
2023-02-26T05:22:04.265Z,98975.59
2023-02-26T05:23:07.661Z,98978.02
2023-02-26T05:24:11.068Z,98992.24
2023-02-26T05:25:14.800Z,98983.16
2023-02-26T05:26:19.468Z,98990.19
2023-02-26T05:27:24.390Z,98989.34
2023-02-26T05:28:28.073Z,98990.19
2023-02-26T05:29:31.756Z,98998.22
2023-02-26T05:30:35.518Z,98998.22
2023-02-26T05:31:38.462Z,99003.30
2023-02-26T05:32:43.838Z,98993.66
2023-02-26T05:33:47.824Z,98997.48
2023-02-26T05:34:51.047Z,98991.05
2023-02-26T05:35:54.625Z,98991.13
2023-02-26T05:36:58.041Z,98995.28
2023-02-26T05:38:05.196Z,98998.42
2023-02-26T05:39:09.850Z,99005.16
2023-02-26T05:40:17.880Z,99000.09
2023-02-26T05:41:21.253Z,99002.97
2023-02-26T05:42:25.596Z,98996.34
2023-02-26T05:43:29.710Z,99002.57
2023-02-26T05:44:34.454Z,99014.70
2023-02-26T05:45:38.402Z,99005.61
2023-02-26T05:46:43.092Z,99008.55
2023-02-26T05:47:46.307Z,99015.66
2023-02-26T05:48:50.327Z,99019.80
2023-02-26T05:49:54.402Z,99012.09
2023-02-26T05:50:58.892Z,99019.41
2023-02-26T05:52:02.448Z,99018.39
2023-02-26T05:53:05.964Z,99021.41
2023-02-26T05:54:09.993Z,99025.20
2023-02-26T05:55:12.666Z,99026.78
2023-02-26T05:56:17.836Z,99025.94
2023-02-26T05:57:22.691Z,99020.77
2023-02-26T05:58:26.655Z,99032.91
2023-02-26T05:59:30.139Z,99032.23
2023-02-26T06:00:32.493Z,99022.14
2023-02-26T06:01:38.051Z,99034.02
2023-02-26T06:02:42.261Z,99038.59
2023-02-26T06:03:46.578Z,99039.61
2023-02-26T06:04:49.831Z,99043.83
2023-02-26T06:05:52.999Z,99045.83
2023-02-26T06:06:56.120Z,99040.08
2023-02-26T06:07:59.625Z,99036.77
2023-02-26T06:09:05.241Z,99043.24
2023-02-26T06:10:09.337Z,99035.73
2023-02-26T06:11:13.395Z,99044.38
2023-02-26T06:12:18.503Z,99047.50
2023-02-26T06:13:21.852Z,99049.02
2023-02-26T06:14:26.908Z,99046.09
2023-02-26T06:15:30.832Z,99047.70
2023-02-26T06:16:35.243Z,99049.39
2023-02-26T06:17:40.851Z,99048.54
2023-02-26T06:18:46.161Z,99048.44
2023-02-26T06:19:48.511Z,99044.76
2023-02-26T06:20:52.337Z,99050.53
2023-02-26T06:21:55.946Z,99055.61
2023-02-26T06:22:59.351Z,99051.13
2023-02-26T06:24:02.895Z,99057.80
2023-02-26T06:25:06.627Z,99055.31
2023-02-26T06:26:10.378Z,99059.44
2023-02-26T06:27:13.993Z,99064.69
2023-02-26T06:28:17.109Z,99068.32
2023-02-26T06:29:21.154Z,99064.80
2023-02-26T06:30:24.638Z,99066.62
2023-02-26T06:31:29.216Z,99072.42
2023-02-26T06:32:32.606Z,99074.09
2023-02-26T06:33:36.074Z,99077.26
2023-02-26T06:34:39.451Z,99073.16
2023-02-26T06:35:44.215Z,99081.20
2023-02-26T06:36:48.560Z,99083.40
2023-02-26T06:37:52.182Z,99084.07
2023-02-26T06:38:56.304Z,99089.03
2023-02-26T06:39:58.773Z,99090.44
2023-02-26T06:41:02.278Z,99095.59
2023-02-26T06:42:07.674Z,99092.42
2023-02-26T06:43:11.871Z,99104.80
2023-02-26T06:44:15.217Z,99100.13
2023-02-26T06:45:17.769Z,99106.48
2023-02-26T06:46:22.009Z,99109.41
2023-02-26T06:47:24.663Z,99109.41
2023-02-26T06:48:29.335Z,99111.78
2023-02-26T06:49:33.871Z,99119.48
2023-02-26T06:50:38.910Z,99123.75
2023-02-26T06:51:45.706Z,99130.43
2023-02-26T06:52:49.307Z,99132.39
2023-02-26T06:53:52.545Z,99135.20
2023-02-26T06:54:55.982Z,99133.13
2023-02-26T06:55:58.367Z,99143.59
2023-02-26T06:57:02.802Z,99143.12
2023-02-26T06:58:07.123Z,99142.17
2023-02-26T06:59:10.748Z,99148.45
2023-02-26T07:00:15.019Z,99154.11
2023-02-26T07:01:18.505Z,99152.39
2023-02-26T07:02:22.749Z,99153.30
2023-02-26T07:03:26.556Z,99157.06
2023-02-26T07:04:30.359Z,99151.16
2023-02-26T07:05:32.597Z,99156.74
2023-02-26T07:06:38.142Z,99158.27
2023-02-26T07:07:43.587Z,99157.13
2023-02-26T07:08:45.980Z,99161.36
2023-02-26T07:09:48.925Z,99162.02
2023-02-26T07:10:52.638Z,99164.17
2023-02-26T07:11:56.143Z,99163.80
2023-02-26T07:12:58.593Z,99164.64
2023-02-26T07:14:01.895Z,99165.77
2023-02-26T07:15:06.145Z,99163.90
2023-02-26T07:16:08.905Z,99170.19
2023-02-26T07:17:15.303Z,99175.45
2023-02-26T07:18:19.916Z,99177.53
2023-02-26T07:19:23.306Z,99173.84
2023-02-26T07:20:26.309Z,99173.65
2023-02-26T07:21:28.618Z,99178.82
2023-02-26T07:22:31.808Z,99181.84
2023-02-26T07:23:34.494Z,99182.12
2023-02-26T07:24:38.714Z,99182.78
2023-02-26T07:25:42.224Z,99182.69
2023-02-26T07:26:48.797Z,99180.42
2023-02-26T07:27:51.422Z,99177.17
2023-02-26T07:28:54.206Z,99175.63
2023-02-26T07:29:57.418Z,99179.30
2023-02-26T07:31:01.474Z,99175.68
2023-02-26T07:32:06.727Z,99179.69
2023-02-26T07:33:13.796Z,99169.15
2023-02-26T07:34:17.050Z,99171.16
2023-02-26T07:35:20.763Z,99175.17
2023-02-26T07:36:24.614Z,99167.52
2023-02-26T07:37:28.512Z,99177.47
2023-02-26T07:38:31.654Z,99172.88
2023-02-26T07:39:37.715Z,99171.45
2023-02-26T07:40:41.219Z,99169.93
2023-02-26T07:41:43.668Z,99176.02
2023-02-26T07:42:48.950Z,99177.25
2023-02-26T07:43:51.525Z,99169.93
2023-02-26T07:44:54.928Z,99174.84
2023-02-26T07:45:58.628Z,99172.47
2023-02-26T07:47:03.730Z,99168.48
2023-02-26T07:48:06.996Z,99165.13
2023-02-26T07:49:12.495Z,99170.72
2023-02-26T07:50:19.274Z,99162.79
2023-02-26T07:51:23.455Z,99157.79
2023-02-26T07:52:30.690Z,99175.07
2023-02-26T07:53:34.341Z,99170.42
2023-02-26T07:54:37.610Z,99181.58
2023-02-26T07:55:41.359Z,99178.30
2023-02-26T07:56:44.453Z,99183.37
2023-02-26T07:57:46.999Z,99182.98
2023-02-26T07:58:50.724Z,99183.11
2023-02-26T07:59:54.008Z,99184.67
2023-02-26T08:00:57.828Z,99189.55
2023-02-26T08:02:02.066Z,99189.80
2023-02-26T08:03:06.433Z,99188.98
2023-02-26T08:04:09.934Z,99198.83
2023-02-26T08:05:13.323Z,99198.50
2023-02-26T08:06:17.033Z,99198.98
2023-02-26T08:07:20.768Z,99204.39
2023-02-26T08:08:24.677Z,99202.83
2023-02-26T08:09:27.957Z,99193.28
2023-02-26T08:10:31.708Z,99195.74
2023-02-26T08:11:50.024Z,99190.47
2023-02-26T08:12:51.011Z,99190.12
2023-02-26T08:13:55.913Z,99192.26
2023-02-26T08:14:58.539Z,99202.53
2023-02-26T08:16:00.838Z,99191.59
2023-02-26T08:17:04.929Z,99188.02
2023-02-26T08:18:07.174Z,99195.70
2023-02-26T08:19:11.863Z,99195.38
2023-02-26T08:20:16.372Z,99186.35
2023-02-26T08:21:20.959Z,99193.21
2023-02-26T08:22:24.967Z,99195.96
2023-02-26T08:23:27.515Z,99195.66
2023-02-26T08:24:29.776Z,99196.50
2023-02-26T08:25:33.284Z,99197.44
2023-02-26T08:26:38.390Z,99199.88
2023-02-26T08:27:44.128Z,99199.77
2023-02-26T08:28:47.553Z,99201.76
2023-02-26T08:29:51.066Z,99200.59
2023-02-26T08:30:55.119Z,99200.94
2023-02-26T08:31:57.714Z,99199.14
2023-02-26T08:33:02.308Z,99208.83
2023-02-26T08:34:05.520Z,99202.92
2023-02-26T08:35:08.798Z,99210.27
2023-02-26T08:36:12.506Z,99214.98
2023-02-26T08:37:15.844Z,99223.02
2023-02-26T08:38:19.729Z,99225.48
2023-02-26T08:39:24.830Z,99224.32
2023-02-26T08:40:31.670Z,99233.70
2023-02-26T08:41:37.800Z,99235.55
2023-02-26T08:42:42.724Z,99233.23
2023-02-26T08:43:45.841Z,99234.49
2023-02-26T08:44:50.575Z,99237.05
2023-02-26T08:45:54.814Z,99240.84
2023-02-26T08:46:57.289Z,99246.52
2023-02-26T08:48:00.560Z,99244.09
2023-02-26T08:49:04.074Z,99244.13
2023-02-26T08:50:07.871Z,99249.13
2023-02-26T08:51:10.971Z,99249.97
2023-02-26T08:52:13.223Z,99254.70
2023-02-26T08:53:17.688Z,99249.92
2023-02-26T08:54:20.873Z,99248.31
2023-02-26T08:55:24.161Z,99245.93
2023-02-26T08:56:27.809Z,99245.81
2023-02-26T08:57:31.485Z,99257.02
2023-02-26T08:58:34.159Z,99255.66
2023-02-26T08:59:39.438Z,99254.02
2023-02-26T09:00:42.951Z,99263.83
2023-02-26T09:01:48.370Z,99260.03
2023-02-26T09:02:51.672Z,99261.47
2023-02-26T09:03:55.296Z,99260.77
2023-02-26T09:04:58.634Z,99266.28
2023-02-26T09:06:01.960Z,99253.91
2023-02-26T09:07:06.428Z,99254.13
2023-02-26T09:08:10.019Z,99250.19
2023-02-26T09:09:13.710Z,99250.05
2023-02-26T09:10:17.985Z,99249.27
2023-02-26T09:11:21.336Z,99254.75
2023-02-26T09:12:24.947Z,99257.61
2023-02-26T09:13:28.561Z,99258.34
2023-02-26T09:14:31.903Z,99258.73
2023-02-26T09:15:34.522Z,99259.30
2023-02-26T09:16:40.690Z,99255.56
2023-02-26T09:17:44.768Z,99260.41
2023-02-26T09:18:48.156Z,99262.31
2023-02-26T09:19:51.465Z,99260.95
2023-02-26T09:20:53.917Z,99263.16
2023-02-26T09:21:57.072Z,99269.34
2023-02-26T09:23:00.524Z,99268.02
2023-02-26T09:24:03.615Z,99272.80
2023-02-26T09:25:07.744Z,99281.41
2023-02-26T09:26:10.318Z,99280.18
2023-02-26T09:27:13.797Z,99285.13
2023-02-26T09:28:17.696Z,99287.67
2023-02-26T09:29:21.138Z,99289.19
2023-02-26T09:30:24.947Z,99283.89
2023-02-26T09:31:28.109Z,99289.95
2023-02-26T09:32:30.793Z,99289.34
2023-02-26T09:33:34.841Z,99291.98
2023-02-26T09:34:38.149Z,99292.93
2023-02-26T09:35:41.503Z,99291.30
2023-02-26T09:36:47.141Z,99297.63
2023-02-26T09:37:52.936Z,99303.30
2023-02-26T09:38:56.171Z,99304.14
2023-02-26T09:39:58.592Z,99294.76
2023-02-26T09:41:03.862Z,99309.21
2023-02-26T09:42:19.904Z,99304.33
2023-02-26T09:43:25.051Z,99319.14
2023-02-26T09:44:30.117Z,99322.67
2023-02-26T09:45:36.608Z,99322.08
2023-02-26T09:46:41.639Z,99321.13
2023-02-26T09:47:46.193Z,99314.78
2023-02-26T09:48:50.533Z,99323.52
2023-02-26T09:49:55.709Z,99316.20
2023-02-26T09:51:00.698Z,99326.40
2023-02-26T09:52:27.169Z,99323.59
2023-02-26T09:53:32.555Z,99321.16
2023-02-26T09:54:38.925Z,99328.41
2023-02-26T09:55:44.670Z,99329.44
2023-02-26T09:56:48.847Z,99329.20
2023-02-26T09:57:55.027Z,99317.82
2023-02-26T09:59:02.577Z,99332.17
2023-02-26T10:00:11.655Z,99325.84
2023-02-26T10:01:17.970Z,99334.33
2023-02-26T10:02:29.110Z,99329.64
2023-02-26T10:03:50.193Z,99333.02
2023-02-26T10:04:55.551Z,99329.81
2023-02-26T10:06:16.598Z,99331.63
2023-02-26T10:07:23.824Z,99337.16
2023-02-26T10:08:32.779Z,99332.50
2023-02-26T10:09:49.712Z,99335.84
2023-02-26T10:10:58.497Z,99334.00
2023-02-26T10:12:03.906Z,99335.04
2023-02-26T10:13:10.943Z,99334.14
2023-02-26T10:14:28.381Z,99333.75
2023-02-26T10:15:38.228Z,99332.05
2023-02-26T10:16:46.762Z,99331.61
2023-02-26T10:17:55.480Z,99330.39
2023-02-26T10:19:07.749Z,99331.28
2023-02-26T10:20:17.760Z,99335.29
2023-02-26T10:21:22.751Z,99334.81
2023-02-26T10:22:31.735Z,99328.23
2023-02-26T10:23:49.286Z,99336.43
2023-02-26T10:24:54.822Z,99326.91
2023-02-26T10:26:08.503Z,99345.42
2023-02-26T10:27:19.703Z,99340.14
2023-02-26T10:28:30.425Z,99346.56
2023-02-26T10:29:35.798Z,99341.74
2023-02-26T10:30:48.963Z,99348.48
2023-02-26T10:32:01.168Z,99333.79
2023-02-26T10:33:14.616Z,99345.59
2023-02-26T10:34:21.039Z,99330.41
2023-02-26T10:35:26.840Z,99340.42
2023-02-26T10:36:31.975Z,99344.30
2023-02-26T10:37:48.272Z,99350.44
2023-02-26T10:38:56.274Z,99338.13
2023-02-26T10:40:14.070Z,99345.73
2023-02-26T10:41:20.224Z,99346.44
2023-02-26T10:42:24.681Z,99350.63
2023-02-26T10:43:31.182Z,99354.52
2023-02-26T10:44:46.589Z,99347.16
2023-02-26T10:46:08.726Z,99355.86
2023-02-26T10:47:20.651Z,99355.61
2023-02-26T10:48:43.676Z,99356.95
2023-02-26T10:49:53.357Z,99355.86
2023-02-26T10:50:58.552Z,99364.58
2023-02-26T10:52:03.486Z,99363.42
2023-02-26T10:53:08.904Z,99359.27
2023-02-26T10:54:14.945Z,99358.77
2023-02-26T10:55:28.230Z,99352.91
2023-02-26T10:56:32.144Z,99348.92
2023-02-26T10:57:38.091Z,99359.75
2023-02-26T10:58:43.021Z,99355.47
2023-02-26T10:59:47.398Z,99366.64
2023-02-26T11:00:54.720Z,99365.00
2023-02-26T11:02:00.416Z,99370.53
2023-02-26T11:03:04.479Z,99370.02
2023-02-26T11:04:09.513Z,99369.18
2023-02-26T11:05:17.992Z,99372.09
2023-02-26T11:06:24.992Z,99377.82
2023-02-26T11:07:32.448Z,99373.41
2023-02-26T11:08:37.600Z,99383.34
2023-02-26T11:09:43.893Z,99377.06
2023-02-26T11:10:50.514Z,99379.22
2023-02-26T11:11:55.374Z,99384.29
2023-02-26T11:14:05.097Z,99385.26
2023-02-26T11:15:12.484Z,99382.88
2023-02-26T11:16:15.856Z,99388.52
2023-02-26T11:17:22.281Z,99393.31
2023-02-26T11:18:27.464Z,99393.59
2023-02-26T11:19:42.568Z,99390.77
2023-02-26T11:20:47.257Z,99389.09
2023-02-26T11:21:51.129Z,99391.83
2023-02-26T11:22:58.533Z,99397.33
2023-02-26T11:24:08.827Z,99396.67
2023-02-26T11:25:14.856Z,99400.11
2023-02-26T11:26:20.644Z,99389.86
2023-02-26T11:27:33.942Z,99404.98
2023-02-26T11:28:39.795Z,99397.44
2023-02-26T11:29:45.223Z,99404.04
2023-02-26T11:30:54.361Z,99401.67
2023-02-26T11:32:00.557Z,99406.01
2023-02-26T11:33:20.302Z,99417.73
2023-02-26T11:34:25.047Z,99412.77
2023-02-26T11:35:28.883Z,99412.28
2023-02-26T11:36:33.336Z,99416.12
2023-02-26T11:37:38.603Z,99417.16
2023-02-26T11:38:42.736Z,99414.08
2023-02-26T11:39:46.454Z,99422.95
2023-02-26T11:40:53.726Z,99426.17
2023-02-26T11:42:00.137Z,99425.80
2023-02-26T11:43:08.234Z,99425.80
2023-02-26T11:44:17.526Z,99430.66
2023-02-26T11:45:21.625Z,99428.02
2023-02-26T11:46:26.437Z,99423.16
2023-02-26T11:47:32.577Z,99427.87
2023-02-26T11:48:43.942Z,99429.78
2023-02-26T11:49:55.185Z,99439.92
2023-02-26T11:50:59.732Z,99441.97
2023-02-26T11:52:08.890Z,99439.55
2023-02-26T11:53:20.554Z,99444.75
2023-02-26T11:54:24.956Z,99434.33
2023-02-26T11:55:29.917Z,99443.45
2023-02-26T11:56:38.545Z,99433.69
2023-02-26T11:57:42.481Z,99437.84
2023-02-26T11:58:48.805Z,99439.53
2023-02-26T11:59:54.605Z,99439.30
2023-02-26T12:01:03.019Z,99448.45
2023-02-26T12:02:13.528Z,99438.48
2023-02-26T12:03:18.619Z,99443.16
2023-02-26T12:04:24.524Z,99445.19
2023-02-26T12:05:31.703Z,99443.02
2023-02-26T12:06:34.992Z,99446.02
2023-02-26T12:07:39.195Z,99447.62
2023-02-26T12:08:41.956Z,99452.47
2023-02-26T12:09:46.516Z,99454.55
2023-02-26T12:10:51.381Z,99447.84
2023-02-26T12:12:07.955Z,99453.95
2023-02-26T12:13:13.327Z,99454.07
2023-02-26T12:14:35.108Z,99442.73
2023-02-26T12:15:41.244Z,99447.42
2023-02-26T12:16:50.473Z,99453.73
2023-02-26T12:17:55.574Z,99448.28
2023-02-26T12:19:01.043Z,99452.67
2023-02-26T12:20:09.763Z,99452.80
2023-02-26T12:21:24.051Z,99451.10
2023-02-26T12:22:33.066Z,99456.22
2023-02-26T12:23:39.339Z,99456.53
2023-02-26T12:24:49.615Z,99467.78
2023-02-26T12:25:54.757Z,99469.70
2023-02-26T12:27:02.641Z,99476.58
2023-02-26T12:28:26.616Z,99478.69
2023-02-26T12:29:31.385Z,99474.33
2023-02-26T12:30:38.214Z,99472.83
2023-02-26T12:31:54.002Z,99478.59
2023-02-26T12:32:59.558Z,99479.33
2023-02-26T12:34:05.670Z,99484.92
2023-02-26T12:35:15.471Z,99488.66
2023-02-26T12:36:22.423Z,99487.19
2023-02-26T12:37:43.343Z,99479.06
2023-02-26T12:38:54.579Z,99481.99
2023-02-26T12:40:00.580Z,99488.00
2023-02-26T12:41:22.271Z,99487.55
2023-02-26T12:42:27.549Z,99496.30
2023-02-26T12:43:36.348Z,99493.95
2023-02-26T12:44:50.334Z,99498.16
2023-02-26T12:46:03.446Z,99492.34
2023-02-26T12:47:26.613Z,99497.31
2023-02-26T12:48:38.344Z,99498.94
2023-02-26T12:49:49.253Z,99497.11
2023-02-26T12:50:53.802Z,99494.52
2023-02-26T12:52:07.933Z,99494.30
2023-02-26T12:53:22.445Z,99491.72
2023-02-26T12:54:44.220Z,99499.67
2023-02-26T12:55:50.318Z,99501.98
2023-02-26T12:57:11.920Z,99493.20
2023-02-26T12:58:31.673Z,99495.34
2023-02-26T12:59:36.791Z,99505.62
2023-02-26T13:00:55.962Z,99497.16
2023-02-26T13:02:18.418Z,99498.62
2023-02-26T13:03:33.102Z,99498.41